Time;durP1;ratioP1;P1;durP2;ratioP2;P2;SDS_P1;SDS_P2;PMS_P1;PMS_P2;Temp;Humidity;BMP_temperature;BMP_pressure;BME280_temperature;BME280_humidity;BME280_pressure;Samples;Min_cycle;Max_cycle;Signal;HPM_P1;HPM_P2
2022/10/10 00:01:56;;;;;;;;;;;22.00;52.90;;;;;;1582427;74;707;-68
2022/10/10 00:03:58;;;;;;;;;;;22.00;52.90;;;;;;1546332;75;740;-68
2022/10/10 00:06:00;;;;;;;;;;;22.00;53.00;;;;;;1554810;75;1169;-69
2022/10/10 00:08:01;;;;;;;;;;;22.00;53.00;;;;;;1579559;74;1937;-68
2022/10/10 00:10:03;;;;;;;;;;;22.00;53.10;;;;;;1553381;75;807;-67
2022/10/10 00:12:05;;;;;;;;;;;22.00;53.10;;;;;;1559722;75;715;-67
2022/10/10 00:14:07;;;;;;;;;;;22.10;53.10;;;;;;1557632;75;701;-66
2022/10/10 00:16:10;;;;;;;;;;;22.10;53.20;;;;;;1569635;74;1161;-66
2022/10/10 00:18:12;;;;;;;;;;;22.10;53.40;;;;;;1561268;75;662;-68
2022/10/10 00:20:14;;;;;;;;;;;22.00;53.20;;;;;;1550724;75;775;-68
2022/10/10 00:22:16;;;;;;;;;;;22.00;53.40;;;;;;1552612;74;743;-69
2022/10/10 00:24:18;;;;;;;;;;;22.10;53.00;;;;;;1560247;75;743;-68
2022/10/10 00:26:20;;;;;;;;;;;22.20;52.80;;;;;;1556637;74;1162;-67
2022/10/10 00:28:21;;;;;;;;;;;22.20;52.80;;;;;;1561928;75;1927;-68
2022/10/10 00:30:23;;;;;;;;;;;22.20;52.70;;;;;;1557682;75;717;-68
2022/10/10 00:32:25;;;;;;;;;;;22.20;52.90;;;;;;1556749;75;733;-68
2022/10/10 00:34:27;;;;;;;;;;;22.10;53.00;;;;;;1550376;75;719;-68
2022/10/10 00:36:29;;;;;;;;;;;22.10;53.00;;;;;;1559025;74;1164;-68
2022/10/10 00:38:31;;;;;;;;;;;22.10;53.00;;;;;;1568274;75;659;-66
2022/10/10 00:40:33;;;;;;;;;;;22.10;53.10;;;;;;1563019;75;612;-67
2022/10/10 00:42:35;;;;;;;;;;;22.00;53.10;;;;;;1553729;75;659;-68
2022/10/10 00:44:37;;;;;;;;;;;22.00;53.10;;;;;;1559861;75;770;-69
2022/10/10 00:46:39;;;;;;;;;;;22.00;53.20;;;;;;1552419;74;1206;-67
2022/10/10 00:48:41;;;;;;;;;;;22.00;53.40;;;;;;1551276;75;1926;-68
2022/10/10 00:50:48;;;;;;;;;;;22.00;53.20;;;;;;1557667;74;737;-67
2022/10/10 00:52:49;;;;;;;;;;;22.00;53.30;;;;;;1556060;75;734;-68
2022/10/10 00:54:51;;;;;;;;;;;22.00;53.30;;;;;;1556416;75;803;-69
2022/10/10 00:56:57;;;;;;;;;;;22.00;53.10;;;;;;1557489;75;1139;-68
2022/10/10 00:59:00;;;;;;;;;;;22.00;53.10;;;;;;1557640;75;957;-68
2022/10/10 01:01:01;;;;;;;;;;;22.10;53.20;;;;;;1552902;75;689;-68
2022/10/10 01:03:03;;;;;;;;;;;22.10;53.20;;;;;;1556975;75;730;-68
2022/10/10 01:05:05;;;;;;;;;;;22.00;53.10;;;;;;1562402;74;740;-68
2022/10/10 01:07:08;;;;;;;;;;;22.10;53.20;;;;;;1554929;74;1148;-68
2022/10/10 01:09:10;;;;;;;;;;;22.00;53.10;;;;;;1552685;75;1941;-68
2022/10/10 01:11:32;;;;;;;;;;;22.10;53.40;;;;;;1564283;75;660;-68
2022/10/10 01:13:52;;;;;;;;;;;22.10;53.40;;;;;;1521937;78;1054;-66
2022/10/10 01:16:07;;;;;;;;;;;22.00;53.20;;;;;;1526929;76;1173;-69
2022/10/10 01:18:17;;;;;;;;;;;22.00;53.30;;;;;;1523731;77;1036;-69
2022/10/10 01:20:26;;;;;;;;;;;22.00;53.40;;;;;;1549445;75;2165;-69
2022/10/10 01:22:36;;;;;;;;;;;22.00;53.40;;;;;;1563221;75;758;-70
2022/10/10 01:24:51;;;;;;;;;;;22.00;53.60;;;;;;1547547;75;1885;-69
2022/10/10 01:27:01;;;;;;;;;;;22.00;53.60;;;;;;1571441;74;1673;-69
2022/10/10 01:29:04;;;;;;;;;;;21.90;53.50;;;;;;1554148;75;1940;-69
2022/10/10 01:31:06;;;;;;;;;;;22.00;53.50;;;;;;1559765;75;723;-68
2022/10/10 01:33:09;;;;;;;;;;;22.00;53.60;;;;;;1542636;75;717;-67
2022/10/10 01:35:15;;;;;;;;;;;22.10;53.60;;;;;;1564080;75;792;-70
2022/10/10 01:37:18;;;;;;;;;;;22.00;53.50;;;;;;1569053;74;1154;-68
2022/10/10 01:39:31;;;;;;;;;;;22.00;53.40;;;;;;1554273;75;751;-68
2022/10/10 01:41:34;;;;;;;;;;;22.10;53.30;;;;;;1562267;75;713;-68
2022/10/10 01:43:36;;;;;;;;;;;22.10;53.20;;;;;;1552795;75;1813;-68
2022/10/10 01:45:40;;;;;;;;;;;22.10;53.30;;;;;;1563456;74;1210;-68
2022/10/10 01:47:42;;;;;;;;;;;22.00;53.40;;;;;;1557406;74;1935;-68
2022/10/10 01:49:43;;;;;;;;;;;22.10;53.50;;;;;;1569641;75;1938;-69
2022/10/10 01:52:05;;;;;;;;;;;22.00;53.40;;;;;;1556886;75;701;-67
2022/10/10 01:54:24;;;;;;;;;;;22.10;53.40;;;;;;1564314;75;730;-67
2022/10/10 01:56:36;;;;;;;;;;;22.10;53.20;;;;;;1567898;74;1117;-69
2022/10/10 01:58:43;;;;;;;;;;;22.10;53.40;;;;;;1568316;75;685;-68
2022/10/10 02:00:46;;;;;;;;;;;22.10;53.60;;;;;;1569381;75;769;-68
2022/10/10 02:02:50;;;;;;;;;;;22.10;53.50;;;;;;1552715;74;748;-68
2022/10/10 02:05:12;;;;;;;;;;;22.10;53.20;;;;;;1562154;74;803;-67
2022/10/10 02:07:16;;;;;;;;;;;22.20;53.30;;;;;;1565545;74;1963;-68
2022/10/10 02:09:23;;;;;;;;;;;22.10;53.30;;;;;;1554784;74;1909;-67
2022/10/10 02:11:24;;;;;;;;;;;22.10;53.40;;;;;;1561452;75;2130;-68
2022/10/10 02:13:28;;;;;;;;;;;22.10;53.40;;;;;;1562137;75;706;-68
2022/10/10 02:15:34;;;;;;;;;;;22.10;53.40;;;;;;1553022;75;753;-69
2022/10/10 02:17:36;;;;;;;;;;;22.10;53.50;;;;;;1562816;75;692;-69
2022/10/10 02:19:39;;;;;;;;;;;22.10;53.60;;;;;;1543685;75;721;-69
2022/10/10 02:21:41;;;;;;;;;;;22.10;53.60;;;;;;1563294;75;792;-68
2022/10/10 02:23:43;;;;;;;;;;;22.10;53.60;;;;;;1566157;74;759;-68
2022/10/10 02:25:46;;;;;;;;;;;22.10;53.60;;;;;;1567603;74;1163;-70
2022/10/10 02:27:50;;;;;;;;;;;22.10;53.60;;;;;;1565451;75;732;-69
2022/10/10 02:29:52;;;;;;;;;;;22.10;53.40;;;;;;1553109;75;1916;-68
2022/10/10 02:32:05;;;;;;;;;;;22.10;53.40;;;;;;1560857;75;778;-69
2022/10/10 02:34:17;;;;;;;;;;;22.10;53.40;;;;;;1561054;75;720;-70
2022/10/10 02:36:19;;;;;;;;;;;22.20;53.40;;;;;;1567316;74;1150;-69
2022/10/10 02:38:21;;;;;;;;;;;22.10;53.40;;;;;;1559669;75;789;-69
2022/10/10 02:40:27;;;;;;;;;;;22.10;53.40;;;;;;1561335;75;801;-70
2022/10/10 02:42:28;;;;;;;;;;;22.10;53.40;;;;;;1567296;75;689;-69
2022/10/10 02:44:30;;;;;;;;;;;22.10;53.40;;;;;;1573563;75;755;-69
2022/10/10 02:46:32;;;;;;;;;;;22.10;53.40;;;;;;1560224;75;1213;-70
2022/10/10 02:48:34;;;;;;;;;;;22.10;53.40;;;;;;1557924;75;1944;-69
2022/10/10 02:50:37;;;;;;;;;;;22.10;53.40;;;;;;1568377;75;750;-68
2022/10/10 02:52:39;;;;;;;;;;;22.10;53.40;;;;;;1564916;75;775;-69
2022/10/10 02:54:40;;;;;;;;;;;22.10;53.50;;;;;;1568893;75;753;-69
2022/10/10 02:56:42;;;;;;;;;;;22.10;53.40;;;;;;1553526;74;1144;-69
2022/10/10 02:58:44;;;;;;;;;;;22.10;53.40;;;;;;1575780;74;607;-69
2022/10/10 03:00:46;;;;;;;;;;;22.10;53.20;;;;;;1568963;75;697;-69
2022/10/10 03:02:48;;;;;;;;;;;22.30;53.20;;;;;;1587744;74;643;-70
2022/10/10 03:04:50;;;;;;;;;;;22.30;53.10;;;;;;1567915;75;748;-70
2022/10/10 03:06:52;;;;;;;;;;;22.30;53.00;;;;;;1565518;75;1137;-66
2022/10/10 03:08:54;;;;;;;;;;;22.30;52.90;;;;;;1565049;75;1906;-70
2022/10/10 03:10:56;;;;;;;;;;;22.20;53.10;;;;;;1562913;75;794;-68
2022/10/10 03:12:58;;;;;;;;;;;22.10;53.40;;;;;;1559465;75;831;-68
2022/10/10 03:15:00;;;;;;;;;;;22.30;53.40;;;;;;1565758;75;833;-68
2022/10/10 03:17:02;;;;;;;;;;;22.30;53.00;;;;;;1565620;75;1169;-68
2022/10/10 03:19:07;;;;;;;;;;;22.40;52.70;;;;;;1556786;75;867;-67
2022/10/10 03:21:07;;;;;;;;;;;22.40;52.60;;;;;;1567022;74;1700;-69
2022/10/10 03:23:10;;;;;;;;;;;22.20;53.10;;;;;;1563893;75;738;-68
2022/10/10 03:25:11;;;;;;;;;;;22.20;53.10;;;;;;1559288;75;793;-68
2022/10/10 03:27:14;;;;;;;;;;;22.30;52.90;;;;;;1555351;74;1140;-68
2022/10/10 03:29:16;;;;;;;;;;;22.40;52.70;;;;;;1563436;75;1935;-69
2022/10/10 03:31:18;;;;;;;;;;;22.40;52.70;;;;;;1557427;75;788;-69
2022/10/10 03:33:20;;;;;;;;;;;22.40;52.60;;;;;;1560629;74;782;-69
2022/10/10 03:35:22;;;;;;;;;;;22.50;52.80;;;;;;1556405;75;793;-72
2022/10/10 03:37:24;;;;;;;;;;;22.50;52.60;;;;;;1567230;74;1206;-69
2022/10/10 03:39:26;;;;;;;;;;;22.50;52.60;;;;;;1555442;75;685;-68
2022/10/10 03:41:28;;;;;;;;;;;22.50;52.60;;;;;;1562035;75;732;-69
2022/10/10 03:43:30;;;;;;;;;;;22.50;52.60;;;;;;1579858;74;760;-69
2022/10/10 03:45:32;;;;;;;;;;;22.50;52.50;;;;;;1597032;74;771;-66
2022/10/10 03:47:33;;;;;;;;;;;22.60;52.50;;;;;;1567255;74;676;-68
2022/10/10 03:49:35;;;;;;;;;;;22.50;52.40;;;;;;1596081;74;1934;-69
2022/10/10 03:51:37;;;;;;;;;;;22.50;52.60;;;;;;1561684;75;792;-68
2022/10/10 03:53:39;;;;;;;;;;;22.50;52.50;;;;;;1555681;75;794;-67
2022/10/10 03:55:41;;;;;;;;;;;22.50;52.50;;;;;;1540133;75;1163;-67
2022/10/10 03:57:43;;;;;;;;;;;22.50;52.60;;;;;;1552272;75;729;-66
2022/10/10 03:59:45;;;;;;;;;;;22.50;52.60;;;;;;1548861;75;778;-69
2022/10/10 04:01:47;;;;;;;;;;;22.50;52.60;;;;;;1552124;75;666;-69
2022/10/10 04:03:49;;;;;;;;;;;22.60;52.50;;;;;;1557521;75;675;-69
2022/10/10 04:05:50;;;;;;;;;;;22.50;52.50;;;;;;1561192;75;1161;-69
2022/10/10 04:07:52;;;;;;;;;;;22.50;52.60;;;;;;1572098;74;709;-69
2022/10/10 04:09:54;;;;;;;;;;;22.50;52.70;;;;;;1540389;75;1933;-69
2022/10/10 04:11:56;;;;;;;;;;;22.50;52.60;;;;;;1579326;74;757;-69
2022/10/10 04:13:58;;;;;;;;;;;22.40;52.40;;;;;;1558253;75;763;-70
2022/10/10 04:16:00;;;;;;;;;;;22.40;52.50;;;;;;1569149;74;1162;-69
2022/10/10 04:18:02;;;;;;;;;;;22.50;52.50;;;;;;1581186;74;724;-69
2022/10/10 04:20:04;;;;;;;;;;;22.50;52.50;;;;;;1537552;75;731;-69
2022/10/10 04:22:06;;;;;;;;;;;22.50;52.50;;;;;;1581995;74;720;-69
2022/10/10 04:24:08;;;;;;;;;;;22.40;52.50;;;;;;1551304;75;779;-69
2022/10/10 04:26:09;;;;;;;;;;;22.50;52.60;;;;;;1572562;74;1145;-69
2022/10/10 04:28:12;;;;;;;;;;;22.50;52.50;;;;;;1553907;75;949;-69
2022/10/10 04:30:14;;;;;;;;;;;22.50;52.50;;;;;;1550330;75;1950;-69
2022/10/10 04:32:16;;;;;;;;;;;22.50;52.50;;;;;;1551510;75;766;-69
2022/10/10 04:34:17;;;;;;;;;;;22.50;52.40;;;;;;1586457;74;709;-69
2022/10/10 04:36:19;;;;;;;;;;;22.50;52.50;;;;;;1577872;74;1150;-69
2022/10/10 04:38:21;;;;;;;;;;;22.40;52.50;;;;;;1553494;75;804;-70
2022/10/10 04:40:23;;;;;;;;;;;22.50;52.60;;;;;;1561324;75;590;-70
2022/10/10 04:42:25;;;;;;;;;;;22.40;52.60;;;;;;1551469;75;732;-71
2022/10/10 04:44:27;;;;;;;;;;;22.50;52.80;;;;;;1581025;74;850;-70
2022/10/10 04:46:29;;;;;;;;;;;22.50;52.80;;;;;;1537450;75;1192;-67
2022/10/10 04:48:31;;;;;;;;;;;22.40;52.70;;;;;;1573707;74;740;-67
2022/10/10 04:50:33;;;;;;;;;;;22.50;52.70;;;;;;1551963;75;1935;-68
2022/10/10 04:52:34;;;;;;;;;;;22.50;52.70;;;;;;1551665;75;754;-68
2022/10/10 04:54:36;;;;;;;;;;;22.60;52.60;;;;;;1562440;75;734;-68
2022/10/10 04:56:41;;;;;;;;;;;22.60;52.40;;;;;;1565962;75;1146;-68
2022/10/10 04:58:42;;;;;;;;;;;22.50;52.40;;;;;;1585295;74;1699;-66
2022/10/10 05:00:44;;;;;;;;;;;22.50;52.50;;;;;;1544047;75;765;-69
2022/10/10 05:02:46;;;;;;;;;;;22.50;52.60;;;;;;1577676;74;721;-68
2022/10/10 05:04:48;;;;;;;;;;;22.40;52.90;;;;;;1557212;75;736;-69
2022/10/10 05:06:49;;;;;;;;;;;22.20;53.20;;;;;;1550662;75;1147;-68
2022/10/10 05:08:51;;;;;;;;;;;22.20;53.50;;;;;;1541199;75;742;-65
2022/10/10 05:10:53;;;;;;;;;;;22.20;53.50;;;;;;1580911;74;1943;-65
2022/10/10 05:12:55;;;;;;;;;;;22.40;53.40;;;;;;1565304;74;800;-66
2022/10/10 05:14:57;;;;;;;;;;;22.30;53.20;;;;;;1546317;75;720;-66
2022/10/10 05:16:59;;;;;;;;;;;22.40;53.10;;;;;;1578280;74;1158;-67
2022/10/10 05:19:01;;;;;;;;;;;22.50;53.10;;;;;;1576684;74;789;-67
2022/10/10 05:21:03;;;;;;;;;;;22.50;52.90;;;;;;1576523;74;763;-67
2022/10/10 05:23:05;;;;;;;;;;;22.40;52.80;;;;;;1573729;75;765;-67
2022/10/10 05:25:07;;;;;;;;;;;22.50;52.70;;;;;;1565815;75;737;-65
2022/10/10 05:27:09;;;;;;;;;;;22.60;52.50;;;;;;1571438;75;1148;-69
2022/10/10 05:29:11;;;;;;;;;;;22.60;52.30;;;;;;1550157;75;785;-66
2022/10/10 05:31:13;;;;;;;;;;;22.40;52.80;;;;;;1560131;75;1982;-67
2022/10/10 05:33:14;;;;;;;;;;;22.30;53.10;;;;;;1567952;75;791;-67
2022/10/10 05:35:16;;;;;;;;;;;22.30;53.50;;;;;;1583725;74;776;-66
2022/10/10 05:37:18;;;;;;;;;;;22.20;53.40;;;;;;1586982;74;1076;-67
2022/10/10 05:39:20;;;;;;;;;;;22.10;53.50;;;;;;1550193;75;773;-67
2022/10/10 05:41:22;;;;;;;;;;;22.00;53.60;;;;;;1552760;75;721;-66
2022/10/10 05:43:24;;;;;;;;;;;22.10;53.60;;;;;;1553282;75;728;-64
2022/10/10 05:45:26;;;;;;;;;;;22.20;53.10;;;;;;1555193;75;807;-73
2022/10/10 05:47:28;;;;;;;;;;;22.30;53.10;;;;;;1598781;73;1132;-67
2022/10/10 05:49:29;;;;;;;;;;;22.30;52.70;;;;;;1568120;75;1937;-67
2022/10/10 05:51:31;;;;;;;;;;;22.20;52.30;;;;;;1586085;74;705;-68
2022/10/10 05:53:33;;;;;;;;;;;22.10;52.10;;;;;;1548026;75;803;-71
2022/10/10 05:55:35;;;;;;;;;;;22.10;52.10;;;;;;1548261;75;1163;-67
2022/10/10 05:57:37;;;;;;;;;;;22.00;51.80;;;;;;1551349;75;679;-68
2022/10/10 05:59:39;;;;;;;;;;;21.90;51.70;;;;;;1553408;75;664;-66
2022/10/10 06:01:41;;;;;;;;;;;22.00;51.60;;;;;;1581884;74;701;-67
2022/10/10 06:03:43;;;;;;;;;;;21.90;51.50;;;;;;1553363;75;699;-67
2022/10/10 06:05:45;;;;;;;;;;;21.90;51.40;;;;;;1561806;74;1113;-71
2022/10/10 06:07:46;;;;;;;;;;;21.80;51.20;;;;;;1569824;74;781;-70
2022/10/10 06:09:48;;;;;;;;;;;21.80;51.00;;;;;;1566900;74;1916;-70
2022/10/10 06:11:50;;;;;;;;;;;21.80;51.00;;;;;;1562253;75;762;-69
2022/10/10 06:13:56;;;;;;;;;;;21.70;51.00;;;;;;1566046;74;716;-70
2022/10/10 06:15:56;;;;;;;;;;;21.70;50.80;;;;;;1554961;75;1154;-70
2022/10/10 06:17:57;;;;;;;;;;;21.70;50.90;;;;;;1584941;74;780;-71
2022/10/10 06:19:59;;;;;;;;;;;21.70;50.80;;;;;;1552189;74;763;-71
2022/10/10 06:22:01;;;;;;;;;;;21.70;50.70;;;;;;1562523;74;742;-70
2022/10/10 06:24:03;;;;;;;;;;;21.60;50.50;;;;;;1553306;74;716;-70
2022/10/10 06:26:05;;;;;;;;;;;21.60;50.50;;;;;;1570086;74;1164;-70
2022/10/10 06:28:07;;;;;;;;;;;21.60;50.50;;;;;;1575124;74;788;-70
2022/10/10 06:30:09;;;;;;;;;;;21.50;50.30;;;;;;1563059;74;2178;-70
2022/10/10 06:32:11;;;;;;;;;;;21.50;50.40;;;;;;1560259;76;670;-70
2022/10/10 06:34:13;;;;;;;;;;;21.50;50.20;;;;;;1562334;74;717;-70
2022/10/10 06:36:15;;;;;;;;;;;21.40;50.20;;;;;;1573032;74;1153;-71
2022/10/10 06:38:16;;;;;;;;;;;21.50;50.20;;;;;;1568005;74;768;-69
2022/10/10 06:40:18;;;;;;;;;;;21.50;50.20;;;;;;1557119;74;819;-69
2022/10/10 06:42:20;;;;;;;;;;;21.50;50.20;;;;;;1564012;74;768;-69
2022/10/10 06:44:22;;;;;;;;;;;21.40;50.00;;;;;;1565379;74;723;-68
2022/10/10 06:46:24;;;;;;;;;;;21.40;50.00;;;;;;1555247;74;1210;-69
2022/10/10 06:48:26;;;;;;;;;;;21.40;50.00;;;;;;1565299;74;767;-71
2022/10/10 06:50:28;;;;;;;;;;;21.30;50.00;;;;;;1566027;74;1932;-69
2022/10/10 06:52:29;;;;;;;;;;;21.30;50.00;;;;;;1558888;74;726;-71
2022/10/10 06:54:31;;;;;;;;;;;21.30;50.00;;;;;;1558448;74;757;-71
2022/10/10 06:56:33;;;;;;;;;;;21.30;50.00;;;;;;1567490;74;1169;-71
2022/10/10 06:58:41;;;;;;;;;;;21.40;50.00;;;;;;1559025;74;695;-68
2022/10/10 07:00:45;;;;;;;;;;;21.30;50.00;;;;;;1565562;76;640;-68
2022/10/10 07:02:46;;;;;;;;;;;21.30;50.00;;;;;;1558753;74;1856;-68
2022/10/10 07:04:48;;;;;;;;;;;21.30;50.00;;;;;;1568040;76;749;-70
2022/10/10 07:06:50;;;;;;;;;;;21.30;50.00;;;;;;1563353;75;1140;-68
2022/10/10 07:08:52;;;;;;;;;;;21.30;49.90;;;;;;1564081;76;726;-68
2022/10/10 07:10:54;;;;;;;;;;;21.20;49.80;;;;;;1572521;74;1934;-70
2022/10/10 07:12:56;;;;;;;;;;;21.20;49.80;;;;;;1564509;74;813;-70
2022/10/10 07:14:58;;;;;;;;;;;21.30;49.90;;;;;;1559738;74;782;-70
2022/10/10 07:17:00;;;;;;;;;;;21.30;49.80;;;;;;1563782;75;1141;-72
2022/10/10 07:19:02;;;;;;;;;;;21.20;49.70;;;;;;1573075;74;731;-70
2022/10/10 07:21:04;;;;;;;;;;;21.20;49.80;;;;;;1560886;74;790;-72
2022/10/10 07:23:06;;;;;;;;;;;21.20;49.70;;;;;;1551143;74;814;-70
2022/10/10 07:25:08;;;;;;;;;;;21.20;49.70;;;;;;1557821;74;777;-70
2022/10/10 07:27:10;;;;;;;;;;;21.20;49.70;;;;;;1562499;74;1107;-71
2022/10/10 07:29:12;;;;;;;;;;;21.20;49.80;;;;;;1557643;74;780;-71
2022/10/10 07:31:14;;;;;;;;;;;21.10;49.80;;;;;;1571071;74;1916;-70
2022/10/10 07:33:16;;;;;;;;;;;21.20;49.80;;;;;;1563799;74;751;-70
2022/10/10 07:35:18;;;;;;;;;;;21.10;49.80;;;;;;1578217;74;717;-70
2022/10/10 07:37:20;;;;;;;;;;;21.20;49.80;;;;;;1581551;74;1122;-71
2022/10/10 07:39:22;;;;;;;;;;;21.10;49.90;;;;;;1551085;76;1171;-69
2022/10/10 07:41:24;;;;;;;;;;;21.20;49.80;;;;;;1577974;74;795;-72
2022/10/10 07:43:26;;;;;;;;;;;21.10;49.80;;;;;;1590739;74;646;-69
2022/10/10 07:45:28;;;;;;;;;;;21.10;49.80;;;;;;1549211;75;780;-69
2022/10/10 07:47:29;;;;;;;;;;;21.10;49.80;;;;;;1549317;75;1189;-70
2022/10/10 07:49:31;;;;;;;;;;;21.20;49.90;;;;;;1559939;75;830;-71
2022/10/10 07:51:33;;;;;;;;;;;21.10;49.80;;;;;;1545896;75;1931;-71
2022/10/10 07:53:35;;;;;;;;;;;21.20;49.90;;;;;;1549450;75;671;-70
2022/10/10 07:55:41;;;;;;;;;;;21.10;49.80;;;;;;1561280;75;1175;-69
2022/10/10 07:57:43;;;;;;;;;;;21.10;49.90;;;;;;1559885;75;1594;-67
2022/10/10 07:59:45;;;;;;;;;;;21.10;49.90;;;;;;1559867;75;716;-69
2022/10/10 08:01:47;;;;;;;;;;;21.10;49.90;;;;;;1564269;75;611;-69
2022/10/10 08:03:49;;;;;;;;;;;21.10;49.90;;;;;;1541891;75;657;-69
2022/10/10 08:05:51;;;;;;;;;;;21.10;50.00;;;;;;1583588;73;1142;-67
2022/10/10 08:07:53;;;;;;;;;;;21.10;49.90;;;;;;1550463;75;777;-65
2022/10/10 08:09:54;;;;;;;;;;;21.10;50.00;;;;;;1577912;74;783;-69
2022/10/10 08:11:56;;;;;;;;;;;21.20;50.00;;;;;;1582440;74;1926;-70
2022/10/10 08:13:58;;;;;;;;;;;21.00;50.00;;;;;;1556704;75;772;-68
2022/10/10 08:16:00;;;;;;;;;;;21.10;50.20;;;;;;1578587;74;1154;-68
2022/10/10 08:18:02;;;;;;;;;;;21.10;50.20;;;;;;1541648;75;709;-68
2022/10/10 08:20:04;;;;;;;;;;;21.10;50.30;;;;;;1546618;75;731;-69
2022/10/10 08:22:06;;;;;;;;;;;21.20;50.40;;;;;;1550968;75;709;-67
2022/10/10 08:24:08;;;;;;;;;;;21.20;50.50;;;;;;1577248;74;712;-69
2022/10/10 08:26:10;;;;;;;;;;;21.20;50.50;;;;;;1566863;74;1151;-70
2022/10/10 08:28:12;;;;;;;;;;;21.20;50.60;;;;;;1580563;74;753;-69
2022/10/10 08:30:14;;;;;;;;;;;21.10;50.60;;;;;;1548241;75;602;-68
2022/10/10 08:32:16;;;;;;;;;;;21.20;50.70;;;;;;1547798;75;1927;-70
2022/10/10 08:34:18;;;;;;;;;;;21.20;50.70;;;;;;1583589;74;675;-69
2022/10/10 08:36:21;;;;;;;;;;;21.20;50.70;;;;;;1563194;75;1165;-69
2022/10/10 08:38:23;;;;;;;;;;;21.20;50.70;;;;;;1583281;74;1039;-68
2022/10/10 08:40:27;;;;;;;;;;;21.30;50.80;;;;;;1563473;74;800;-66
2022/10/10 08:42:36;;;;;;;;;;;21.30;50.90;;;;;;1569588;74;1384;-69
2022/10/10 08:44:45;;;;;;;;;;;21.30;50.90;;;;;;1570217;74;1026;-69
2022/10/10 08:46:48;;;;;;;;;;;21.30;50.90;;;;;;1567688;74;1629;-70
2022/10/10 08:48:50;;;;;;;;;;;21.30;50.90;;;;;;1584938;74;671;-69
2022/10/10 08:50:53;;;;;;;;;;;21.30;50.90;;;;;;1560047;74;1924;-69
2022/10/10 08:53:00;;;;;;;;;;;21.30;50.90;;;;;;1571494;74;1745;-68
2022/10/10 08:55:02;;;;;;;;;;;21.40;51.00;;;;;;1551761;75;590;-70
2022/10/10 08:57:05;;;;;;;;;;;21.30;50.90;;;;;;1575860;74;1213;-69
2022/10/10 08:59:11;;;;;;;;;;;21.40;51.00;;;;;;1558943;75;712;-68
2022/10/10 09:01:22;;;;;;;;;;;21.30;51.00;;;;;;1578842;74;865;-69
2022/10/10 09:03:41;;;;;;;;;;;21.40;51.00;;;;;;1568276;74;1600;-68
2022/10/10 09:05:45;;;;;;;;;;;21.40;50.90;;;;;;1561868;75;1167;-70
2022/10/10 09:08:06;;;;;;;;;;;21.40;51.00;;;;;;1543240;75;983;-69
2022/10/10 09:10:10;;;;;;;;;;;21.40;51.00;;;;;;1557666;75;713;-67
2022/10/10 09:12:13;;;;;;;;;;;21.40;51.00;;;;;;1567354;74;2042;-69
2022/10/10 09:14:22;;;;;;;;;;;21.40;51.00;;;;;;1549055;75;791;-69
2022/10/10 09:16:29;;;;;;;;;;;21.40;51.00;;;;;;1563611;74;1132;-68
2022/10/10 09:18:35;;;;;;;;;;;21.40;51.00;;;;;;1562503;76;1895;-69
2022/10/10 09:20:53;;;;;;;;;;;21.40;51.10;;;;;;1563696;74;782;-68
2022/10/10 09:23:09;;;;;;;;;;;21.40;51.00;;;;;;1561078;74;733;-68
2022/10/10 09:25:13;;;;;;;;;;;21.40;51.10;;;;;;1563827;74;1794;-69
2022/10/10 09:27:16;;;;;;;;;;;21.40;51.00;;;;;;1548698;74;1533;-68
2022/10/10 09:29:38;;;;;;;;;;;21.40;51.00;;;;;;1568006;74;774;-69
2022/10/10 09:31:41;;;;;;;;;;;21.50;51.20;;;;;;1554668;74;1922;-68
2022/10/10 09:33:44;;;;;;;;;;;21.40;51.10;;;;;;1556272;75;991;-68
2022/10/10 09:35:45;;;;;;;;;;;21.50;51.20;;;;;;1581101;73;1147;-68
2022/10/10 09:37:49;;;;;;;;;;;21.50;51.20;;;;;;1567140;74;672;-69
2022/10/10 09:39:52;;;;;;;;;;;21.50;51.20;;;;;;1553900;75;1777;-67
2022/10/10 09:42:01;;;;;;;;;;;21.50;51.20;;;;;;1577354;74;885;-68
2022/10/10 09:44:07;;;;;;;;;;;21.50;51.30;;;;;;1578868;74;808;-69
2022/10/10 09:46:09;;;;;;;;;;;21.50;51.20;;;;;;1562692;75;1863;-68
2022/10/10 09:48:11;;;;;;;;;;;21.40;51.10;;;;;;1549648;75;852;-71
2022/10/10 09:50:13;;;;;;;;;;;21.50;51.20;;;;;;1594540;74;747;-68
2022/10/10 09:52:17;;;;;;;;;;;21.50;51.20;;;;;;1557702;75;1943;-69
2022/10/10 09:54:19;;;;;;;;;;;21.50;51.20;;;;;;1568931;75;1863;-69
2022/10/10 09:56:21;;;;;;;;;;;21.50;51.30;;;;;;1575770;74;1190;-67
2022/10/10 09:58:33;;;;;;;;;;;21.50;51.20;;;;;;1549609;75;658;-68
2022/10/10 10:00:35;;;;;;;;;;;21.50;51.20;;;;;;1552792;75;742;-70
2022/10/10 10:02:37;;;;;;;;;;;21.50;51.20;;;;;;1549384;75;753;-67
2022/10/10 10:04:39;;;;;;;;;;;21.60;51.30;;;;;;1556028;75;737;-68
2022/10/10 10:06:45;;;;;;;;;;;21.50;51.30;;;;;;1561696;75;1140;-68
2022/10/10 10:08:47;;;;;;;;;;;21.50;51.30;;;;;;1566695;74;761;-69
2022/10/10 10:10:49;;;;;;;;;;;21.50;51.30;;;;;;1526628;76;1141;-71
2022/10/10 10:12:51;;;;;;;;;;;21.60;51.20;;;;;;1566090;74;1947;-69
2022/10/10 10:14:54;;;;;;;;;;;21.50;51.20;;;;;;1564649;74;781;-70
2022/10/10 10:16:58;;;;;;;;;;;21.60;51.10;;;;;;1566152;74;1817;-68
2022/10/10 10:19:00;;;;;;;;;;;21.60;51.20;;;;;;1554947;74;1186;-69
2022/10/10 10:21:04;;;;;;;;;;;21.60;51.20;;;;;;1565905;74;815;-69
2022/10/10 10:23:07;;;;;;;;;;;21.60;51.20;;;;;;1570231;74;874;-68
2022/10/10 10:25:34;;;;;;;;;;;21.60;51.20;;;;;;1562891;74;1666;-68
2022/10/10 10:27:32;;;;;;;;;;;21.50;51.10;;;;;;1556960;74;1543;-68
2022/10/10 10:29:34;;;;;;;;;;;21.60;51.20;;;;;;1556218;74;838;-68
2022/10/10 10:31:53;;;;;;;;;;;21.60;51.20;;;;;;1577188;74;1922;-66
2022/10/10 10:34:02;;;;;;;;;;;21.60;51.20;;;;;;1567373;75;773;-68
2022/10/10 10:36:06;;;;;;;;;;;21.60;51.10;;;;;;1564808;74;1922;-70
2022/10/10 10:38:26;;;;;;;;;;;21.60;51.20;;;;;;1564485;74;1922;-66
2022/10/10 10:40:32;;;;;;;;;;;21.60;51.20;;;;;;1565005;74;742;-67
2022/10/10 10:42:35;;;;;;;;;;;21.60;51.10;;;;;;1567091;75;827;-66
2022/10/10 10:44:55;;;;;;;;;;;21.60;51.20;;;;;;1569818;74;1478;-67
2022/10/10 10:47:02;;;;;;;;;;;21.70;51.30;;;;;;1566514;74;1151;-67
2022/10/10 10:49:17;;;;;;;;;;;21.60;51.20;;;;;;1573512;74;1790;-67
2022/10/10 10:51:30;;;;;;;;;;;21.60;51.20;;;;;;1549930;75;1919;-67
2022/10/10 10:53:49;;;;;;;;;;;21.60;51.20;;;;;;1564633;74;728;-67
2022/10/10 10:55:53;;;;;;;;;;;21.60;51.20;;;;;;1570357;74;1940;-64
2022/10/10 10:57:56;;;;;;;;;;;21.60;51.20;;;;;;1570878;74;1767;-67
2022/10/10 11:00:12;;;;;;;;;;;21.70;51.30;;;;;;1576548;74;709;-68
2022/10/10 11:02:28;;;;;;;;;;;21.60;51.20;;;;;;1563933;74;767;-69
2022/10/10 11:04:49;;;;;;;;;;;21.70;51.30;;;;;;1571744;74;2098;-68
2022/10/10 11:06:56;;;;;;;;;;;21.60;51.20;;;;;;1564332;74;1138;-67
2022/10/10 11:09:02;;;;;;;;;;;21.60;51.20;;;;;;1552440;74;1709;-68
2022/10/10 11:11:21;;;;;;;;;;;21.60;51.20;;;;;;1570062;75;1776;-69
2022/10/10 11:13:25;;;;;;;;;;;21.60;51.20;;;;;;1559082;74;1896;-68
2022/10/10 11:15:31;;;;;;;;;;;21.60;51.20;;;;;;1565647;74;691;-69
2022/10/10 11:17:36;;;;;;;;;;;21.60;51.20;;;;;;1565514;74;1949;-69
2022/10/10 11:19:43;;;;;;;;;;;21.70;51.30;;;;;;1563360;74;870;-70
2022/10/10 11:21:55;;;;;;;;;;;21.60;51.10;;;;;;1576638;74;792;-69
2022/10/10 11:24:17;;;;;;;;;;;21.60;51.10;;;;;;1555265;74;785;-69
2022/10/10 11:26:30;;;;;;;;;;;21.60;51.10;;;;;;1556954;74;1156;-68
2022/10/10 11:28:33;;;;;;;;;;;21.60;51.20;;;;;;1554941;76;688;-71
2022/10/10 11:30:36;;;;;;;;;;;21.70;51.30;;;;;;1549031;74;1874;-70
2022/10/10 11:32:49;;;;;;;;;;;21.60;51.10;;;;;;1555190;75;1907;-69
2022/10/10 11:35:01;;;;;;;;;;;21.60;51.10;;;;;;1554393;74;998;-68
2022/10/10 11:37:04;;;;;;;;;;;21.60;51.20;;;;;;1566863;74;1150;-69
2022/10/10 11:39:11;;;;;;;;;;;21.60;51.10;;;;;;1567939;74;811;-69
2022/10/10 11:41:13;;;;;;;;;;;21.70;51.30;;;;;;1516169;76;994;-69
2022/10/10 11:43:17;;;;;;;;;;;21.70;51.20;;;;;;1559727;75;800;-69
2022/10/10 11:45:23;;;;;;;;;;;21.70;51.30;;;;;;1566911;74;1828;-69
2022/10/10 11:47:29;;;;;;;;;;;21.70;51.20;;;;;;1559310;74;1134;-68
2022/10/10 11:49:36;;;;;;;;;;;21.70;51.30;;;;;;1558832;76;648;-69
2022/10/10 11:51:40;;;;;;;;;;;21.60;51.20;;;;;;1560702;74;1935;-69
2022/10/10 11:53:42;;;;;;;;;;;21.70;51.20;;;;;;1564272;76;736;-69
2022/10/10 11:55:48;;;;;;;;;;;21.70;51.20;;;;;;1550848;76;1206;-70
2022/10/10 11:57:54;;;;;;;;;;;21.70;51.20;;;;;;1564057;74;1950;-68
2022/10/10 11:59:58;;;;;;;;;;;21.70;51.20;;;;;;1568977;74;728;-70
2022/10/10 12:02:00;;;;;;;;;;;21.70;51.20;;;;;;1585005;74;762;-70
2022/10/10 12:04:02;;;;;;;;;;;21.70;51.20;;;;;;1548207;75;731;-70
2022/10/10 12:06:05;;;;;;;;;;;21.70;51.20;;;;;;1573581;73;1152;-68
2022/10/10 12:08:09;;;;;;;;;;;21.70;51.20;;;;;;1566941;74;1836;-65
2022/10/10 12:10:18;;;;;;;;;;;21.70;51.20;;;;;;1561615;74;796;-68
2022/10/10 12:12:21;;;;;;;;;;;21.70;51.20;;;;;;1565239;74;1935;-68
2022/10/10 12:14:24;;;;;;;;;;;21.70;51.30;;;;;;1555374;74;1454;-69
2022/10/10 12:16:27;;;;;;;;;;;21.70;51.30;;;;;;1553239;74;1159;-68
2022/10/10 12:18:30;;;;;;;;;;;21.70;51.30;;;;;;1568518;75;793;-68
2022/10/10 12:20:33;;;;;;;;;;;21.70;51.30;;;;;;1569960;74;1478;-68